Flight Track Log - Related Links

Times and Time Zones

All times are in EDT time to prevent confusion due to time zone crossing. See the VH-BWL flight status page for this flight to view local times or setup timezone preferences in your user account.

Time Position Orientation Groundspeed Altitude Reporting Facility
EDT Latitude Longitude Course Direction KTS MPH feet Rate Location/Type
Sun 03:01:40 AM -33.4492 149.7162 110° East 100  Level Aus ATC (Calculated)
Sun 03:02:43 AM -33.4930 149.7850 341° North 100 2,660 Level Aus ATC (Calculated)
Sun 03:03:17 AM -33.4670 149.7742 126° Southeast 144 166 4,400 3,797 Climbing Aus ATC (RADAR)
Sun 03:04:02 AM -33.4833 149.8015 126° Southeast 131 151 5,100 857 Climbing Aus ATC (RADAR)
Sun 03:04:27 AM -33.4937 149.8148 133° Southeast 132 152 5,400 500 Climbing Aus ATC (RADAR)
Sun 03:05:02 AM -33.5077 149.8359 128° Southeast 139 160 5,600 300 Climbing Aus ATC (RADAR)
Sun 03:05:47 AM -33.5271 149.8631 131° Southeast 143 165 5,800 348 Climbing Aus ATC (RADAR)
Sun 03:06:11 AM -33.5388 149.8788 132° Southeast 148 170 6,000 656 Climbing Aus ATC (RADAR)
Sun 03:06:51 AM -33.5545 149.9032 128° Southeast 138 159 6,500 565 Climbing Aus ATC (RADAR)
Sun 03:07:36 AM -33.5718 149.9301 128° Southeast 135 155 6,800 225 Climbing Aus ATC (RADAR)
Sun 03:08:11 AM -33.5872 149.9501 133° Southeast 139 160 6,800 240 Level Aus ATC (RADAR)
Sun 03:08:51 AM -33.6043 149.9761 128° Southeast 151 174 7,100 92 Climbing Aus ATC (RADAR)
Sun 03:09:16 AM -33.6141 149.9975 119° Southeast 169 194 6,900 -100 Descending Aus ATC (RADAR)
Sun 03:09:51 AM -33.6293 150.0263 123° Southeast 170 196 7,000  Climbing Aus ATC (RADAR)
Sun 03:10:56 AM -33.6632 150.0742 130° Southeast 170 196 6,900 -74 Descending Aus ATC (RADAR)
Sun 03:11:12 AM -33.6699 150.0858 125° Southeast 168 193 6,900  Level Aus ATC (RADAR)
Sun 03:11:46 AM -33.6882 150.1116 130° Southeast 172 198 6,900  Level Aus ATC (RADAR)
Sun 03:12:36 AM -33.7134 150.1485 129° Southeast 171 197 6,900  Level Aus ATC (RADAR)
Sun 03:13:11 AM -33.7309 150.1763 127° Southeast 176 203 6,900 135 Level Aus ATC (RADAR)
Sun 03:14:05 AM -33.7548 150.2211 123° Southeast 169 194 7,100 174 Climbing Aus ATC (RADAR)
Sun 03:14:20 AM -33.7629 150.2326 130° Southeast 172 198 7,100 -360 Level Aus ATC (RADAR)
Sun 03:14:55 AM -33.7824 150.2615 129° Southeast 187 215 6,800 -286 Descending Aus ATC (RADAR)
Sun 03:16:05 AM -33.8193 150.3154 130° Southeast 177 204 6,600 -63 Descending Aus ATC (RADAR)
Sun 03:16:30 AM -33.8340 150.3336 134° Southeast 179 206 6,700 -300 Climbing Aus ATC (RADAR)
Sun 03:17:05 AM -33.8536 150.3604 131° Southeast 179 206 6,300 -600 Descending Aus ATC (RADAR)
Sun 03:17:50 AM -33.8723 150.3999 120° Southeast 174 200 5,900 -675 Descending Aus ATC (RADAR)
Sun 03:18:25 AM -33.8838 150.4349 112° Southeast 187 215 5,400 -514 Descending Aus ATC (RADAR)
Sun 03:19:00 AM -33.9019 150.4652 126° Southeast 186 214 5,300 -880 Descending Aus ATC (RADAR)
Sun 03:19:40 AM -33.9220 150.4999 125° Southeast 188 216 4,300 -1,200 Descending Aus ATC (RADAR)
Sun 03:20:20 AM -33.9474 150.5294 136° Southeast 184 212 3,700 -1,143 Descending Aus ATC (RADAR)
Sun 03:21:25 AM -33.9801 150.5898 123° Southeast 191 220 2,300 -1,011 Descending Aus ATC (RADAR)
Sun 03:21:55 AM -33.9938 150.6170 121° Southeast 183 211 2,100 -369 Descending Aus ATC (RADAR)
Sun 03:22:30 AM -34.0065 150.6474 117° Southeast 173 199 1,900 -532 Descending Aus ATC (RADAR)
Sun 03:23:14 AM -34.0269 150.6835 124° Southeast 168 193 1,400 -608 Descending Aus ATC (RADAR)
Sun 03:23:49 AM -34.0382 150.7104 117° Southeast 151 174 1,100 -450 Descending Aus ATC (RADAR)
Sun 03:24:34 AM -34.0535 150.7160 163° South 97 112 800 -514 Descending Aus ATC (RADAR)
Sun 03:24:59 AM -34.0490 150.7068 300° West 74 85 500 -480 Descending Aus ATC (RADAR)
Sun 03:25:49 AM -34.0442 150.6900 289° West 66 76 200 -360 Descending Aus ATC (RADAR)

Login

Don't have an account? Register now (free) for customized features, flight alerts, and more!